Terminal Aerodrome Forecast
Issued by NWS

Home | Current Version | Previous Version | Graphics & Text | Print | Product List | Glossary On
Versions: 1 2 3 4 5 6 7 8 9 10 11 12 13 14 15 16 17
868
FTUS43 KABR 021441 AAA
TAFMBG
TAF AMD
KMBG 021441Z 0215/0312 VRB04KT P6SM OVC090
     FM021530 27008KT P6SM -SHRA OVC050
     FM022300 VRB05KT P6SM SCT200=

USA.gov is the U.S. government's official web portal to all federal, state and local government web resources and services.